createdAt,value
2022-09-07T00:01:30.894Z,3.58
2022-09-07T00:04:48.225Z,6.38
2022-09-07T00:08:05.525Z,4.08
2022-09-07T00:11:25.393Z,5.90
2022-09-07T00:14:41.984Z,3.53
2022-09-07T00:17:58.325Z,3.68
2022-09-07T00:21:16.914Z,5.50
2022-09-07T00:24:33.305Z,5.18
2022-09-07T00:27:49.955Z,4.70
2022-09-07T00:31:06.642Z,5.88
2022-09-07T00:34:23.139Z,6.85
2022-09-07T00:37:39.615Z,4.05
2022-09-07T00:40:56.085Z,3.13
2022-09-07T00:45:01.083Z,4.05
2022-09-07T00:48:22.606Z,4.80
2022-09-07T00:51:44.164Z,6.85
2022-09-07T00:55:04.973Z,4.85
2022-09-07T00:58:22.114Z,3.93
2022-09-07T01:01:40.040Z,3.08
2022-09-07T01:05:04.448Z,4.83
2022-09-07T01:08:21.356Z,7.83
2022-09-07T01:11:40.417Z,4.05
2022-09-07T01:15:00.038Z,3.58
2022-09-07T01:18:23.252Z,3.53
2022-09-07T01:21:48.785Z,3.95
2022-09-07T01:25:13.873Z,3.95
2022-09-07T01:28:33.849Z,3.40
2022-09-07T01:31:55.952Z,5.75
2022-09-07T01:35:16.264Z,3.25
2022-09-07T01:38:37.597Z,6.65
2022-09-07T01:41:58.879Z,3.00
2022-09-07T01:45:19.488Z,3.43
2022-09-07T01:48:37.695Z,5.83
2022-09-07T01:51:57.186Z,4.95
2022-09-07T01:55:19.443Z,3.88
2022-09-07T01:58:41.068Z,3.48
2022-09-07T02:02:02.012Z,4.18
2022-09-07T02:05:22.548Z,4.48
2022-09-07T02:08:43.477Z,3.90
2022-09-07T02:12:01.480Z,5.98
2022-09-07T02:15:24.788Z,3.95
2022-09-07T02:18:45.359Z,3.45
2022-09-07T02:22:07.037Z,4.45
2022-09-07T02:25:28.800Z,6.73
2022-09-07T02:28:47.354Z,5.60
2022-09-07T02:32:04.082Z,5.30
2022-09-07T02:35:21.289Z,5.75
2022-09-07T02:38:37.914Z,5.08
2022-09-07T02:41:55.440Z,4.90
2022-09-07T02:45:15.455Z,4.68
2022-09-07T02:48:37.662Z,4.85
2022-09-07T02:51:59.844Z,6.00
2022-09-07T02:55:24.069Z,6.38
2022-09-07T02:58:46.400Z,7.83
2022-09-07T03:02:08.864Z,6.23
2022-09-07T03:05:32.315Z,4.48
2022-09-07T03:08:52.487Z,5.60
2022-09-07T03:12:13.418Z,4.78
2022-09-07T03:15:33.461Z,5.08
2022-09-07T03:18:50.509Z,4.98
2022-09-07T03:22:07.253Z,5.60
2022-09-07T03:25:24.479Z,5.25
2022-09-07T03:28:41.198Z,8.08
2022-09-07T03:31:57.485Z,7.18
2022-09-07T03:35:16.236Z,4.65
2022-09-07T03:38:32.736Z,5.93
2022-09-07T03:41:49.406Z,5.50
2022-09-07T03:45:05.771Z,4.78
2022-09-07T03:48:22.202Z,6.33
2022-09-07T03:51:38.548Z,5.08
2022-09-07T03:54:54.996Z,5.55
2022-09-07T03:58:11.237Z,9.33
2022-09-07T04:01:30.713Z,7.90
2022-09-07T04:04:47.489Z,8.53
2022-09-07T04:08:03.581Z,4.93
2022-09-07T04:11:23.557Z,5.35
2022-09-07T04:14:39.856Z,6.50
2022-09-07T04:17:55.995Z,6.78
2022-09-07T04:21:12.672Z,6.88
2022-09-07T04:24:28.839Z,7.13
2022-09-07T04:27:45.188Z,6.03
2022-09-07T04:31:01.530Z,11.33
2022-09-07T04:34:19.705Z,22.90
2022-09-07T04:37:36.105Z,26.73
2022-09-07T04:40:52.425Z,17.95
2022-09-07T04:44:14.833Z,14.45
2022-09-07T04:47:30.880Z,10.28
2022-09-07T04:50:47.124Z,9.90
2022-09-07T04:54:05.905Z,11.78
2022-09-07T04:57:24.263Z,11.48
2022-09-07T05:00:40.942Z,12.75
2022-09-07T05:03:57.923Z,10.85
2022-09-07T05:07:14.729Z,13.80
2022-09-07T05:10:31.232Z,10.90
2022-09-07T05:13:47.693Z,9.55
2022-09-07T05:17:04.109Z,9.08
2022-09-07T05:20:21.932Z,12.45
2022-09-07T05:23:38.190Z,9.35
2022-09-07T05:26:54.588Z,10.48
2022-09-07T05:36:47.195Z,9.88
2022-09-07T05:40:03.559Z,6.88
2022-09-07T05:43:20.057Z,6.65
2022-09-07T05:46:36.514Z,9.30
2022-09-07T05:49:57.076Z,8.65
2022-09-07T05:53:13.101Z,7.05
2022-09-07T05:56:29.239Z,10.25
2022-09-07T05:59:45.839Z,7.15
2022-09-07T06:03:02.935Z,9.38
2022-09-07T06:06:22.544Z,6.13
2022-09-07T06:12:56.384Z,8.25
2022-09-07T06:16:15.323Z,8.18
2022-09-07T06:19:31.713Z,11.48
2022-09-07T06:22:49.157Z,8.28
2022-09-07T06:26:13.615Z,11.15
2022-09-07T06:29:30.080Z,9.35
2022-09-07T06:32:47.783Z,10.15
2022-09-07T06:36:09.333Z,10.13
2022-09-07T06:39:25.631Z,9.93
2022-09-07T06:42:42.228Z,8.93
2022-09-07T06:49:21.903Z,8.28
2022-09-07T06:55:56.998Z,12.00
2022-09-07T06:59:13.432Z,10.33
2022-09-07T07:02:29.815Z,10.95
2022-09-07T07:05:46.232Z,9.58
2022-09-07T07:09:04.592Z,9.85
2022-09-07T07:15:38.459Z,11.48
2022-09-07T07:18:54.693Z,10.35
2022-09-07T07:25:29.685Z,10.95
2022-09-07T07:29:04.294Z,7.85
2022-09-07T07:32:06.781Z,12.28
2022-09-07T07:35:23.951Z,8.45
2022-09-07T07:42:03.162Z,20.40
2022-09-07T07:48:39.061Z,8.98
2022-09-07T07:58:30.198Z,10.63
2022-09-07T08:01:46.941Z,8.53
2022-09-07T08:05:03.391Z,10.68
2022-09-07T08:08:19.735Z,13.78
2022-09-07T08:11:36.236Z,8.88
2022-09-07T08:14:55.985Z,8.45
2022-09-07T08:18:13.884Z,8.80
2022-09-07T08:21:30.135Z,8.85
2022-09-07T08:24:46.362Z,8.30
2022-09-07T08:28:02.251Z,8.90
2022-09-07T08:31:21.021Z,8.08
2022-09-07T08:34:37.148Z,7.23
2022-09-07T08:37:53.554Z,11.78
2022-09-07T08:41:20.590Z,10.00
2022-09-07T08:44:40.980Z,8.48
2022-09-07T08:48:00.389Z,7.55
2022-09-07T08:51:24.429Z,7.93
2022-09-07T08:54:41.149Z,11.63
2022-09-07T08:58:05.047Z,6.53
2022-09-07T09:06:11.303Z,8.28
2022-09-07T09:08:18.669Z,7.88
2022-09-07T09:11:41.150Z,8.48
2022-09-07T09:15:12.656Z,12.70
2022-09-07T09:18:49.578Z,9.25
2022-09-07T09:22:15.767Z,7.98
2022-09-07T09:25:39.108Z,7.78
2022-09-07T09:29:03.099Z,9.50
2022-09-07T09:32:43.183Z,9.15
2022-09-07T09:36:02.096Z,11.80
2022-09-07T09:39:36.890Z,7.68
2022-09-07T09:42:55.183Z,8.18
2022-09-07T09:46:20.827Z,8.18
2022-09-07T09:49:41.273Z,11.08
2022-09-07T09:52:59.395Z,10.03
2022-09-07T09:56:16.888Z,7.47
2022-09-07T10:06:41.589Z,9.23
2022-09-07T10:10:02.273Z,7.18
2022-09-07T10:13:26.643Z,7.38
2022-09-07T10:16:49.065Z,10.18
2022-09-07T10:20:11.031Z,20.35
2022-09-07T10:23:35.161Z,10.13
2022-09-07T10:26:52.258Z,9.88
2022-09-07T10:30:10.485Z,8.23
2022-09-07T10:33:32.722Z,7.23
2022-09-07T10:36:54.705Z,8.20
2022-09-07T10:40:25.096Z,7.75
2022-09-07T10:43:51.227Z,6.98
2022-09-07T10:47:12.613Z,7.45
2022-09-07T10:50:41.105Z,6.48
2022-09-07T10:57:53.995Z,6.65
2022-09-07T11:01:20.338Z,7.13
2022-09-07T11:04:55.979Z,7.65
2022-09-07T11:08:24.353Z,6.98
2022-09-07T11:12:01.079Z,7.25
2022-09-07T11:15:11.053Z,7.83
2022-09-07T11:18:31.781Z,7.55
2022-09-07T11:21:56.743Z,7.30
2022-09-07T11:25:36.127Z,8.48
2022-09-07T11:28:47.561Z,8.48
2022-09-07T11:32:08.117Z,5.78
2022-09-07T11:35:29.876Z,7.95
2022-09-07T11:38:51.996Z,7.50
2022-09-07T11:45:36.769Z,5.48
2022-09-07T11:48:58.499Z,7.50
2022-09-07T11:52:21.484Z,7.33
2022-09-07T11:55:41.867Z,7.25
2022-09-07T11:59:24.739Z,6.73
2022-09-07T12:03:27.660Z,6.78
2022-09-07T12:07:29.707Z,7.20
2022-09-07T12:11:13.041Z,7.65
2022-09-07T12:14:49.004Z,6.53
2022-09-07T12:18:19.982Z,7.35
2022-09-07T12:21:48.619Z,11.63
2022-09-07T12:25:05.404Z,11.85
2022-09-07T12:28:34.218Z,12.18
2022-09-07T12:31:59.157Z,9.85
2022-09-07T12:35:40.950Z,11.68
2022-09-07T12:39:29.103Z,9.25
2022-09-07T12:42:45.229Z,11.48
2022-09-07T12:46:02.590Z,7.53
2022-09-07T12:49:39.982Z,7.50
2022-09-07T12:53:20.498Z,7.28
2022-09-07T13:00:27.621Z,7.20
2022-09-07T13:04:23.114Z,9.50
2022-09-07T13:08:07.217Z,7.60
2022-09-07T13:11:41.168Z,6.35
2022-09-07T13:15:00.732Z,5.88
2022-09-07T13:18:33.763Z,5.93
2022-09-07T13:21:53.302Z,9.70
2022-09-07T13:25:16.379Z,9.33
2022-09-07T13:29:01.193Z,8.98
2022-09-07T13:33:07.854Z,8.63
2022-09-07T13:35:42.727Z,6.23
2022-09-07T13:39:01.596Z,8.28
2022-09-07T13:42:37.799Z,5.68
2022-09-07T13:46:04.593Z,5.13
2022-09-07T13:49:38.148Z,5.03
2022-09-07T13:53:30.036Z,6.43
2022-09-07T13:56:53.538Z,7.55
2022-09-07T14:00:11.883Z,8.35
2022-09-07T14:03:30.291Z,6.95
2022-09-07T14:06:48.498Z,24.40
2022-09-07T14:10:24.566Z,5.88
2022-09-07T14:13:40.483Z,7.45
2022-09-07T14:17:03.145Z,5.65
2022-09-07T14:20:25.562Z,6.80
2022-09-07T14:23:43.424Z,8.55
2022-09-07T14:26:59.552Z,5.65
2022-09-07T14:30:34.655Z,5.98
2022-09-07T14:33:55.286Z,6.70
2022-09-07T14:37:17.495Z,7.88
2022-09-07T14:40:35.941Z,7.88
2022-09-07T14:44:04.768Z,5.30
2022-09-07T14:50:43.003Z,5.60
2022-09-07T14:54:03.531Z,6.10
2022-09-07T14:57:51.936Z,6.73
2022-09-07T15:01:40.992Z,33.23
2022-09-07T15:05:18.167Z,11.95
2022-09-07T15:08:49.693Z,7.63
2022-09-07T15:12:36.471Z,7.30
2022-09-07T15:15:47.481Z,6.28
2022-09-07T15:19:06.884Z,8.28
2022-09-07T15:22:24.227Z,8.10
2022-09-07T15:25:40.867Z,7.55
2022-09-07T15:29:12.190Z,9.30
2022-09-07T15:32:19.273Z,6.73
2022-09-07T15:35:35.663Z,8.08
2022-09-07T15:38:59.778Z,7.28
2022-09-07T15:45:29.705Z,9.63
2022-09-07T15:48:46.389Z,6.43
2022-09-07T15:52:06.040Z,11.33
2022-09-07T15:55:21.808Z,7.23
2022-09-07T15:58:38.786Z,6.70
2022-09-07T16:01:55.456Z,5.95
2022-09-07T16:05:14.475Z,5.85
2022-09-07T16:08:33.986Z,7.18
2022-09-07T16:11:50.836Z,27.43
2022-09-07T16:15:07.317Z,18.65
2022-09-07T16:18:26.309Z,15.00
2022-09-07T16:21:44.788Z,10.53
2022-09-07T16:25:02.419Z,8.18
2022-09-07T16:28:18.988Z,7.35
2022-09-07T16:31:37.047Z,9.13
2022-09-07T16:34:53.510Z,8.35
2022-09-07T16:41:32.338Z,5.83
2022-09-07T16:44:48.461Z,7.33
2022-09-07T16:48:05.691Z,25.45
2022-09-07T16:51:24.973Z,12.33
2022-09-07T16:54:41.029Z,8.45
2022-09-07T17:01:18.632Z,5.78
2022-09-07T17:04:35.074Z,6.83
2022-09-07T17:07:59.346Z,9.75
2022-09-07T17:11:18.138Z,6.80
2022-09-07T17:14:34.425Z,9.80
2022-09-07T17:17:50.445Z,9.08
2022-09-07T17:21:07.839Z,9.65
2022-09-07T17:24:24.462Z,7.70
2022-09-07T17:27:43.919Z,6.83
2022-09-07T17:31:01.924Z,5.83
2022-09-07T17:34:20.564Z,6.05
2022-09-07T17:37:36.991Z,8.58
2022-09-07T17:40:53.431Z,8.00
2022-09-07T17:44:10.511Z,7.93
2022-09-07T17:47:26.919Z,9.20
2022-09-07T17:50:44.535Z,12.18
2022-09-07T17:54:12.713Z,8.25
2022-09-07T17:57:23.745Z,12.58
2022-09-07T18:00:41.756Z,10.05
2022-09-07T18:07:12.136Z,9.28
2022-09-07T18:11:44.935Z,10.85
2022-09-07T18:13:51.041Z,11.33
2022-09-07T18:17:07.317Z,13.23
2022-09-07T18:20:24.974Z,12.53
2022-09-07T18:23:41.665Z,13.08
2022-09-07T18:27:02.076Z,11.98
2022-09-07T18:30:22.553Z,10.63
2022-09-07T18:33:38.967Z,10.40
2022-09-07T18:36:55.590Z,12.15
2022-09-07T18:40:13.891Z,13.83
2022-09-07T18:43:30.696Z,13.73
2022-09-07T18:46:48.687Z,12.60
2022-09-07T18:50:07.640Z,11.78
2022-09-07T18:53:24.016Z,16.55
2022-09-07T18:56:40.242Z,13.28
2022-09-07T18:59:56.741Z,22.60
2022-09-07T19:03:14.656Z,17.88
2022-09-07T19:06:32.703Z,18.90
2022-09-07T19:09:49.638Z,19.75
2022-09-07T19:13:05.885Z,14.70
2022-09-07T19:16:26.099Z,19.35
2022-09-07T19:19:42.827Z,90.18
2022-09-07T19:22:59.724Z,59.73
2022-09-07T19:26:19.331Z,23.35
2022-09-07T19:29:37.130Z,21.43
2022-09-07T19:32:53.833Z,16.73
2022-09-07T19:36:16.790Z,18.20
2022-09-07T19:39:33.142Z,19.45
2022-09-07T19:42:49.744Z,19.08
2022-09-07T19:46:06.297Z,16.70
2022-09-07T19:49:22.736Z,17.18
2022-09-07T19:52:39.222Z,18.73
2022-09-07T19:55:55.539Z,19.38
2022-09-07T19:59:12.323Z,20.58
2022-09-07T20:02:28.564Z,17.33
2022-09-07T20:05:47.586Z,17.48
2022-09-07T20:09:04.920Z,18.88
2022-09-07T20:12:21.555Z,18.00
2022-09-07T20:15:38.809Z,18.53
2022-09-07T20:18:57.292Z,20.93
2022-09-07T20:22:13.995Z,18.30
2022-09-07T20:25:30.707Z,18.78
2022-09-07T20:28:48.351Z,21.15
2022-09-07T20:32:05.142Z,16.88
2022-09-07T20:35:21.556Z,16.58
2022-09-07T20:38:38.410Z,19.43
2022-09-07T20:41:54.653Z,17.55
2022-09-07T20:45:11.659Z,20.20
2022-09-07T20:48:28.046Z,20.55
2022-09-07T20:51:44.222Z,18.75
2022-09-07T20:55:00.357Z,17.58
2022-09-07T20:58:16.742Z,18.15
2022-09-07T21:01:34.009Z,19.28
2022-09-07T21:04:50.340Z,16.58
2022-09-07T21:08:06.807Z,17.73
2022-09-07T21:11:26.211Z,22.30
2022-09-07T21:17:55.929Z,19.43
2022-09-07T21:21:20.925Z,22.30
2022-09-07T21:24:32.640Z,16.23
2022-09-07T21:27:49.143Z,19.18
2022-09-07T21:31:11.475Z,16.48
2022-09-07T21:34:28.567Z,19.43
2022-09-07T21:37:44.667Z,17.85
2022-09-07T21:41:00.702Z,17.60
2022-09-07T21:44:19.755Z,21.33
2022-09-07T21:47:35.673Z,28.23
2022-09-07T21:50:52.357Z,23.90
2022-09-07T21:54:11.149Z,22.75
2022-09-07T21:57:27.309Z,25.18
2022-09-07T22:00:45.270Z,25.35
2022-09-07T22:04:07.711Z,21.28
2022-09-07T22:07:23.774Z,20.55
2022-09-07T22:10:41.754Z,21.80
2022-09-07T22:14:01.151Z,19.50
2022-09-07T22:17:17.887Z,18.75
2022-09-07T22:20:34.074Z,20.33
2022-09-07T22:23:54.488Z,21.63
2022-09-07T22:27:10.932Z,18.45
2022-09-07T22:30:27.136Z,23.80
2022-09-07T22:33:43.584Z,17.05
2022-09-07T22:36:59.648Z,20.55
2022-09-07T22:40:17.778Z,17.40
2022-09-07T22:43:34.163Z,14.85
2022-09-07T22:46:53.134Z,16.48
2022-09-07T22:50:09.962Z,17.25
2022-09-07T22:53:25.976Z,17.30
2022-09-07T22:56:45.095Z,19.90
2022-09-07T23:03:15.924Z,20.03
2022-09-07T23:06:35.417Z,19.68
2022-09-07T23:09:51.891Z,19.18
2022-09-07T23:13:11.199Z,17.15
2022-09-07T23:16:28.420Z,17.00
2022-09-07T23:19:44.644Z,17.93
2022-09-07T23:23:00.847Z,18.28
2022-09-07T23:26:17.737Z,16.33
2022-09-07T23:29:33.708Z,15.80
2022-09-07T23:32:49.777Z,22.58
2022-09-07T23:36:12.262Z,17.78
2022-09-07T23:39:28.682Z,20.78
2022-09-07T23:42:45.131Z,15.98
2022-09-07T23:46:01.885Z,19.35
2022-09-07T23:49:18.360Z,18.98
2022-09-07T23:52:34.850Z,14.68
2022-09-07T23:55:53.927Z,15.73
2022-09-07T23:59:10.713Z,14.33
